createdAt,value
2023-02-18T00:08:37.258Z,9.00
2023-02-18T00:18:41.528Z,9.20
2023-02-18T00:28:48.969Z,9.30
2023-02-18T00:39:00.717Z,10.90
2023-02-18T00:49:06.193Z,11.80
2023-02-18T00:59:09.982Z,12.10
2023-02-18T01:09:15.190Z,12.40
2023-02-18T01:19:19.351Z,12.60
2023-02-18T01:29:25.190Z,12.70
2023-02-18T01:39:28.870Z,13.10
2023-02-18T01:49:37.333Z,13.00
2023-02-18T01:59:43.528Z,12.70
2023-02-18T02:09:49.997Z,12.30
2023-02-18T02:20:30.425Z,11.50
2023-02-18T02:31:22.561Z,11.50
2023-02-18T02:41:40.970Z,12.00
2023-02-18T02:51:50.747Z,11.40
2023-02-18T03:02:15.607Z,10.70
2023-02-18T03:12:26.887Z,10.20
2023-02-18T03:22:37.242Z,9.80
2023-02-18T03:32:41.255Z,9.90
2023-02-18T03:42:46.694Z,9.80
2023-02-18T03:52:51.054Z,9.80
2023-02-18T04:02:56.209Z,10.50
2023-02-18T04:13:00.018Z,10.30
2023-02-18T04:23:05.606Z,10.50
2023-02-18T04:33:09.582Z,10.30
2023-02-18T04:43:14.686Z,10.40
2023-02-18T04:53:18.501Z,10.00
2023-02-18T05:03:23.667Z,9.60
2023-02-18T05:13:27.494Z,9.60
2023-02-18T05:23:32.591Z,9.50
2023-02-18T05:33:36.780Z,9.20
2023-02-18T05:43:55.640Z,9.40
2023-02-18T05:53:59.294Z,10.60
2023-02-18T06:04:04.577Z,11.00
2023-02-18T06:14:08.547Z,10.50
2023-02-18T06:24:13.690Z,10.00
2023-02-18T06:34:17.827Z,9.50
2023-02-18T06:44:23.237Z,9.00
2023-02-18T06:54:27.010Z,8.70
2023-02-18T07:04:32.135Z,8.70
2023-02-18T07:14:35.867Z,8.60
2023-02-18T07:24:41.197Z,8.60
2023-02-18T07:34:45.050Z,8.70
2023-02-18T07:44:50.639Z,9.10
2023-02-18T07:54:54.359Z,9.70
2023-02-18T08:04:59.562Z,10.20
2023-02-18T08:15:03.260Z,10.70
2023-02-18T08:25:15.579Z,11.40
2023-02-18T08:35:22.340Z,11.90
2023-02-18T08:45:27.598Z,12.40
2023-02-18T08:55:31.609Z,12.70
2023-02-18T09:05:36.754Z,13.10
2023-02-18T09:15:41.092Z,13.70
2023-02-18T09:25:46.389Z,13.80
2023-02-18T09:35:51.031Z,14.50
2023-02-18T09:45:56.855Z,15.10
2023-02-18T09:56:01.946Z,15.50
2023-02-18T10:06:12.239Z,15.40
2023-02-18T10:16:25.183Z,15.20
2023-02-18T10:26:32.860Z,15.50
2023-02-18T10:36:42.935Z,16.30
2023-02-18T10:46:56.693Z,16.80
2023-02-18T10:57:02.518Z,17.50
2023-02-18T11:07:13.955Z,17.90
2023-02-18T11:17:22.228Z,17.90
2023-02-18T11:27:32.304Z,17.70
2023-02-18T11:37:38.074Z,18.20
2023-02-18T11:47:43.358Z,18.60
2023-02-18T11:57:52.035Z,18.40
2023-02-18T12:08:02.883Z,18.80
2023-02-18T12:18:40.027Z,19.60
2023-02-18T12:28:59.779Z,19.20
2023-02-18T12:39:13.004Z,19.20
2023-02-18T12:49:44.986Z,19.30
2023-02-18T13:00:14.837Z,19.60
2023-02-18T13:10:46.052Z,19.90
2023-02-18T13:20:53.308Z,20.10
2023-02-18T13:31:15.312Z,20.20
2023-02-18T13:41:19.629Z,20.80
2023-02-18T13:51:33.885Z,20.50
2023-02-18T14:01:44.712Z,21.40
2023-02-18T14:11:56.147Z,21.70
2023-02-18T14:22:27.924Z,22.00
2023-02-18T14:32:32.959Z,21.00
2023-02-18T14:42:45.055Z,22.50
2023-02-18T14:52:54.658Z,21.70
2023-02-18T15:02:58.474Z,23.00
2023-02-18T15:13:07.221Z,22.30
2023-02-18T15:23:15.354Z,22.60
2023-02-18T15:33:22.636Z,21.20
2023-02-18T15:43:28.258Z,21.30
2023-02-18T15:53:37.572Z,20.40
2023-02-18T16:03:48.370Z,20.40
2023-02-18T16:13:54.434Z,20.00
2023-02-18T16:24:00.298Z,19.40
2023-02-18T16:34:05.511Z,19.40
2023-02-18T16:44:15.333Z,17.90
2023-02-18T16:54:20.350Z,16.70
2023-02-18T17:04:24.084Z,16.50
2023-02-18T17:14:29.326Z,16.00
2023-02-18T17:24:33.038Z,15.60
2023-02-18T17:34:41.275Z,15.20
2023-02-18T17:44:45.167Z,14.80
2023-02-18T17:54:50.484Z,14.30
2023-02-18T18:04:56.060Z,13.60
2023-02-18T18:15:03.130Z,12.90
2023-02-18T18:25:17.604Z,12.70
2023-02-18T18:35:26.647Z,12.20
2023-02-18T18:45:33.083Z,12.00
2023-02-18T18:55:40.854Z,11.70
2023-02-18T19:05:46.433Z,11.20
2023-02-18T19:15:53.613Z,11.10
2023-02-18T19:25:59.157Z,10.90
2023-02-18T19:36:08.013Z,11.20
2023-02-18T19:46:13.809Z,11.20
2023-02-18T19:56:19.175Z,10.70
2023-02-18T20:06:23.222Z,10.40
2023-02-18T20:16:28.449Z,10.40
2023-02-18T20:26:32.073Z,10.60
2023-02-18T20:36:37.316Z,10.20
2023-02-18T20:46:41.600Z,10.00
2023-02-18T20:56:48.301Z,10.20
2023-02-18T21:06:52.291Z,9.70
2023-02-18T21:16:57.349Z,9.70
2023-02-18T21:27:01.344Z,9.70
2023-02-18T21:37:06.637Z,9.50
2023-02-18T21:47:10.483Z,9.30
2023-02-18T21:57:17.581Z,9.30
2023-02-18T22:07:23.426Z,9.20
2023-02-18T22:17:30.216Z,9.10
2023-02-18T22:27:33.928Z,8.80
2023-02-18T22:37:39.174Z,8.90
2023-02-18T22:47:43.059Z,8.90
2023-02-18T22:57:48.346Z,9.00
2023-02-18T23:07:52.020Z,9.00
2023-02-18T23:17:57.126Z,8.90
2023-02-18T23:28:00.745Z,8.50
2023-02-18T23:38:06.145Z,8.70
2023-02-18T23:48:09.715Z,8.30
2023-02-18T23:58:14.807Z,8.40
